createdAt,value
2022-08-07T00:00:40.220Z,159.83
2022-08-07T00:03:09.149Z,160.07
2022-08-07T00:05:38.656Z,160.20
2022-08-07T00:08:08.038Z,158.77
2022-08-07T00:10:36.354Z,159.60
2022-08-07T00:13:23.904Z,159.10
2022-08-07T00:15:54.022Z,159.63
2022-08-07T00:18:25.558Z,159.43
2022-08-07T00:20:57.423Z,159.10
2022-08-07T00:23:30.350Z,158.80
2022-08-07T00:26:01.809Z,160.00
2022-08-07T00:28:35.430Z,159.60
2022-08-07T00:31:17.735Z,160.07
2022-08-07T00:33:47.753Z,159.17
2022-08-07T00:36:17.156Z,159.30
2022-08-07T00:38:45.037Z,159.17
2022-08-07T00:41:14.845Z,159.80
2022-08-07T00:44:00.446Z,159.40
2022-08-07T00:46:32.895Z,159.13
2022-08-07T00:49:03.011Z,159.00
2022-08-07T00:51:57.246Z,159.47
2022-08-07T00:54:22.353Z,159.37
2022-08-07T00:56:51.364Z,160.27
2022-08-07T00:59:35.858Z,159.43
2022-08-07T01:02:08.935Z,158.77
2022-08-07T01:04:43.880Z,159.57
2022-08-07T01:07:14.376Z,159.50
2022-08-07T01:10:06.322Z,159.27
2022-08-07T01:12:31.251Z,159.00
2022-08-07T01:15:04.020Z,158.67
2022-08-07T01:17:33.287Z,159.17
2022-08-07T01:20:06.549Z,158.87
2022-08-07T01:22:46.665Z,158.60
2022-08-07T01:25:54.229Z,158.67
2022-08-07T01:28:15.491Z,158.53
2022-08-07T01:30:45.513Z,159.10
2022-08-07T01:33:15.851Z,158.93
2022-08-07T01:35:53.360Z,158.73
2022-08-07T01:38:25.618Z,158.90
2022-08-07T01:41:00.634Z,159.60
2022-08-07T01:43:34.561Z,158.43
2022-08-07T01:46:12.295Z,158.80
2022-08-07T01:48:46.464Z,157.70
2022-08-07T01:52:03.795Z,158.20
2022-08-07T01:54:33.340Z,157.77
2022-08-07T01:57:09.127Z,157.90
2022-08-07T01:59:56.734Z,157.23
2022-08-07T02:03:11.427Z,156.60
2022-08-07T02:05:47.803Z,156.70
2022-08-07T02:08:19.939Z,156.47
2022-08-07T02:10:58.168Z,156.50
2022-08-07T02:13:58.140Z,156.80
2022-08-07T02:16:28.852Z,155.83
2022-08-07T02:19:05.485Z,156.40
2022-08-07T02:21:55.097Z,156.63
2022-08-07T02:24:25.276Z,156.23
2022-08-07T02:27:00.134Z,157.07
2022-08-07T02:29:30.584Z,156.33
2022-08-07T02:32:01.050Z,157.37
2022-08-07T02:34:29.716Z,156.37
2022-08-07T02:37:02.596Z,157.83
2022-08-07T02:39:42.991Z,156.63
2022-08-07T02:42:19.325Z,156.97
2022-08-07T02:44:51.976Z,156.20
2022-08-07T02:47:25.327Z,156.70
2022-08-07T02:50:01.864Z,155.37
2022-08-07T02:52:38.618Z,157.90
2022-08-07T02:55:15.443Z,157.97
2022-08-07T02:58:02.823Z,158.30
2022-08-07T03:00:35.570Z,157.23
2022-08-07T03:03:07.181Z,156.87
2022-08-07T03:05:44.605Z,158.23
2022-08-07T03:08:14.687Z,157.47
2022-08-07T03:10:47.477Z,157.50
2022-08-07T03:13:22.324Z,157.20
2022-08-07T03:15:58.244Z,157.30
2022-08-07T03:18:34.935Z,156.90
2022-08-07T03:21:08.714Z,156.63
2022-08-07T03:24:19.218Z,156.93
2022-08-07T03:26:33.203Z,156.37
2022-08-07T03:29:11.162Z,156.13
2022-08-07T03:31:46.238Z,155.83
2022-08-07T03:34:22.572Z,155.57
2022-08-07T03:36:58.202Z,156.30
2022-08-07T03:39:46.288Z,156.20
2022-08-07T03:42:18.618Z,155.83
2022-08-07T03:44:53.501Z,155.97
2022-08-07T03:47:23.037Z,156.10
2022-08-07T03:49:52.392Z,155.87
2022-08-07T03:52:26.157Z,156.33
2022-08-07T03:54:59.000Z,156.50
2022-08-07T03:58:34.023Z,155.50
2022-08-07T04:00:30.569Z,155.80
2022-08-07T04:03:03.969Z,156.07
2022-08-07T04:05:40.332Z,155.37
2022-08-07T04:08:16.113Z,155.00
2022-08-07T04:10:54.712Z,155.40
2022-08-07T04:14:09.301Z,155.23
2022-08-07T04:16:30.870Z,158.53
2022-08-07T04:19:03.842Z,165.27
2022-08-07T04:21:33.803Z,157.27
2022-08-07T04:24:07.804Z,160.70
2022-08-07T04:26:37.709Z,159.47
2022-08-07T04:29:11.780Z,152.13
2022-08-07T04:32:03.254Z,152.13
2022-08-07T04:34:36.548Z,151.53
2022-08-07T04:37:08.080Z,151.93
2022-08-07T04:39:45.611Z,152.40
2022-08-07T04:42:18.595Z,152.77
2022-08-07T04:44:54.355Z,152.27
2022-08-07T04:48:01.318Z,152.67
2022-08-07T04:50:31.687Z,152.70
2022-08-07T04:53:27.664Z,155.83
2022-08-07T04:58:23.765Z,154.73
2022-08-07T05:00:07.884Z,155.43
2022-08-07T05:01:58.243Z,155.60
2022-08-07T05:04:36.161Z,152.77
2022-08-07T05:07:21.146Z,152.77
2022-08-07T05:09:59.633Z,153.20
2022-08-07T05:12:37.408Z,154.03
2022-08-07T05:15:23.264Z,153.97
2022-08-07T05:18:01.590Z,152.47
2022-08-07T05:20:42.910Z,152.63
2022-08-07T05:23:17.285Z,152.87
2022-08-07T05:26:11.103Z,153.17
2022-08-07T05:28:40.494Z,152.80
2022-08-07T05:31:14.515Z,154.47
2022-08-07T05:34:01.266Z,153.57
2022-08-07T05:36:39.072Z,153.47
2022-08-07T05:40:18.016Z,153.97
2022-08-07T05:42:07.473Z,153.27
2022-08-07T05:44:46.615Z,153.17
2022-08-07T05:47:38.070Z,153.13
2022-08-07T05:50:18.475Z,153.87
2022-08-07T05:52:48.518Z,153.77
2022-08-07T05:55:16.608Z,154.10
2022-08-07T05:57:47.340Z,153.37
2022-08-07T06:00:18.183Z,153.03
2022-08-07T06:03:01.209Z,153.13
2022-08-07T06:05:31.264Z,153.50
2022-08-07T06:08:30.340Z,152.77
2022-08-07T06:10:55.099Z,153.47
2022-08-07T06:14:13.094Z,153.70
2022-08-07T06:16:16.065Z,153.40
2022-08-07T06:18:55.545Z,153.97
2022-08-07T06:22:16.874Z,153.77
2022-08-07T06:24:52.200Z,152.53
2022-08-07T06:27:04.240Z,153.03
2022-08-07T06:29:34.950Z,152.37
2022-08-07T06:32:08.067Z,153.50
2022-08-07T06:34:35.954Z,153.30
2022-08-07T06:37:08.548Z,153.50
2022-08-07T06:40:17.766Z,153.90
2022-08-07T06:42:37.139Z,153.43
2022-08-07T06:45:21.636Z,153.70
2022-08-07T06:47:59.044Z,153.40
2022-08-07T06:50:47.891Z,153.13
2022-08-07T06:54:11.615Z,153.83
2022-08-07T06:56:15.261Z,153.03
2022-08-07T07:00:13.971Z,153.93
2022-08-07T07:01:43.671Z,154.27
2022-08-07T07:04:32.232Z,154.13
2022-08-07T07:07:10.436Z,153.80
2022-08-07T07:09:49.096Z,153.63
2022-08-07T07:12:36.113Z,154.00
2022-08-07T07:15:23.595Z,154.17
2022-08-07T07:17:59.584Z,153.67
2022-08-07T07:20:33.464Z,155.20
2022-08-07T07:24:09.389Z,155.10
2022-08-07T07:26:33.146Z,155.57
2022-08-07T07:29:57.196Z,154.70
2022-08-07T07:31:44.591Z,155.27
2022-08-07T07:34:30.685Z,155.90
2022-08-07T07:37:14.626Z,157.27
2022-08-07T07:39:55.213Z,157.33
2022-08-07T07:42:32.909Z,156.53
2022-08-07T07:45:03.327Z,157.47
2022-08-07T07:47:52.043Z,158.50
2022-08-07T07:50:35.274Z,158.10
2022-08-07T07:53:20.617Z,159.17
2022-08-07T07:55:57.897Z,158.80
2022-08-07T07:58:40.419Z,159.00
2022-08-07T08:02:03.151Z,160.07
2022-08-07T08:04:10.389Z,161.93
2022-08-07T08:06:50.608Z,163.33
2022-08-07T08:09:23.376Z,164.13
2022-08-07T08:12:02.487Z,163.27
2022-08-07T08:14:32.435Z,162.70
2022-08-07T08:17:14.208Z,163.07
2022-08-07T08:20:19.071Z,162.80
2022-08-07T08:23:08.489Z,162.80
2022-08-07T08:25:57.930Z,162.53
2022-08-07T08:28:37.964Z,163.17
2022-08-07T08:31:16.451Z,163.43
2022-08-07T08:33:55.804Z,163.87
2022-08-07T08:36:30.067Z,164.60
2022-08-07T08:39:02.038Z,164.80
2022-08-07T08:41:57.203Z,166.57
2022-08-07T08:44:41.181Z,166.07
2022-08-07T08:47:25.041Z,166.60
2022-08-07T08:50:05.962Z,165.60
2022-08-07T08:52:40.879Z,168.40
2022-08-07T08:55:55.536Z,168.53
2022-08-07T08:58:28.728Z,166.03
2022-08-07T09:01:15.346Z,166.33
2022-08-07T09:03:56.688Z,166.47
2022-08-07T09:06:38.396Z,167.57
2022-08-07T09:09:30.268Z,165.90
2022-08-07T09:12:31.361Z,166.53
2022-08-07T09:16:21.669Z,166.77
2022-08-07T09:18:22.589Z,166.87
2022-08-07T09:21:01.359Z,167.63
2022-08-07T09:24:30.995Z,167.17
2022-08-07T09:26:47.660Z,167.63
2022-08-07T09:30:04.645Z,166.57
2022-08-07T09:32:26.397Z,166.90
2022-08-07T09:36:00.957Z,168.13
2022-08-07T09:38:00.425Z,167.30
2022-08-07T09:40:36.648Z,166.93
2022-08-07T09:43:18.631Z,165.90
2022-08-07T09:47:37.204Z,166.37
2022-08-07T09:50:00.494Z,166.57
2022-08-07T09:52:10.341Z,165.97
2022-08-07T09:54:48.374Z,167.80
2022-08-07T09:57:48.885Z,167.57
2022-08-07T10:00:21.498Z,167.17
2022-08-07T10:04:03.137Z,166.77
2022-08-07T10:06:39.988Z,165.67
2022-08-07T10:10:00.935Z,167.20
2022-08-07T10:12:53.031Z,166.77
2022-08-07T10:15:45.023Z,167.20
2022-08-07T10:18:49.535Z,166.60
2022-08-07T10:21:50.517Z,167.67
2022-08-07T10:24:45.962Z,166.77
2022-08-07T10:27:30.281Z,167.63
2022-08-07T10:30:19.622Z,167.23
2022-08-07T10:33:04.135Z,167.33
2022-08-07T10:35:56.421Z,166.93
2022-08-07T10:38:48.209Z,167.33
2022-08-07T10:41:46.819Z,167.27
2022-08-07T10:44:19.536Z,167.37
2022-08-07T10:47:06.111Z,167.17
2022-08-07T10:49:50.738Z,166.63
2022-08-07T10:52:31.902Z,166.90
2022-08-07T10:55:27.059Z,167.40
2022-08-07T10:58:14.486Z,166.77
2022-08-07T11:00:56.324Z,168.00
2022-08-07T11:03:37.867Z,167.47
2022-08-07T11:06:26.837Z,166.97
2022-08-07T11:09:02.683Z,167.43
2022-08-07T11:11:36.200Z,167.17
2022-08-07T11:14:45.363Z,167.17
2022-08-07T11:17:07.289Z,166.37
2022-08-07T11:19:49.664Z,167.20
2022-08-07T11:22:32.468Z,167.33
2022-08-07T11:25:11.970Z,166.07
2022-08-07T11:28:03.035Z,168.13
2022-08-07T11:30:41.730Z,167.73
2022-08-07T11:33:19.812Z,168.07
2022-08-07T11:36:20.534Z,167.10
2022-08-07T11:39:04.870Z,167.43
2022-08-07T11:42:01.701Z,167.27
2022-08-07T11:44:52.274Z,167.83
2022-08-07T11:47:56.729Z,167.30
2022-08-07T11:50:57.905Z,166.70
2022-08-07T11:53:43.221Z,167.37
2022-08-07T11:56:42.911Z,167.97
2022-08-07T12:00:12.506Z,168.20
2022-08-07T12:02:31.923Z,168.27
2022-08-07T12:05:15.334Z,166.27
2022-08-07T12:08:03.676Z,167.40
2022-08-07T12:10:41.744Z,166.93
2022-08-07T12:13:16.863Z,167.50
2022-08-07T12:16:06.965Z,167.40
2022-08-07T12:18:45.137Z,166.37
2022-08-07T12:21:55.648Z,167.83
2022-08-07T12:24:37.751Z,167.63
2022-08-07T12:27:16.174Z,167.37
2022-08-07T12:29:52.674Z,168.03
2022-08-07T12:32:28.680Z,167.13
2022-08-07T12:34:59.126Z,168.17
2022-08-07T12:38:09.760Z,168.27
2022-08-07T12:40:47.941Z,168.37
2022-08-07T12:44:03.936Z,166.97
2022-08-07T12:46:26.378Z,169.33
2022-08-07T12:49:25.518Z,167.93
2022-08-07T12:52:11.986Z,168.13
2022-08-07T12:54:54.907Z,167.67
2022-08-07T12:57:59.474Z,167.17
2022-08-07T13:00:31.343Z,168.20
2022-08-07T13:03:27.558Z,167.33
2022-08-07T13:06:27.599Z,168.30
2022-08-07T13:09:12.605Z,167.30
2022-08-07T13:12:03.064Z,168.27
2022-08-07T13:14:52.546Z,166.83
2022-08-07T13:17:40.031Z,167.10
2022-08-07T13:20:19.841Z,168.27
2022-08-07T13:22:56.130Z,166.77
2022-08-07T13:25:31.433Z,168.20
2022-08-07T13:28:11.007Z,167.90
2022-08-07T13:30:53.121Z,167.33
2022-08-07T13:34:29.974Z,168.00
2022-08-07T13:36:40.629Z,167.37
2022-08-07T13:39:28.274Z,167.17
2022-08-07T13:42:02.605Z,168.63
2022-08-07T13:44:37.164Z,167.70
2022-08-07T13:47:09.139Z,168.60
2022-08-07T13:50:33.400Z,168.50
2022-08-07T13:52:39.645Z,168.17
2022-08-07T13:55:19.278Z,167.07
2022-08-07T13:58:27.927Z,169.07
2022-08-07T14:01:00.852Z,168.63
2022-08-07T14:04:04.962Z,167.57
2022-08-07T14:06:36.085Z,168.30
2022-08-07T14:09:05.696Z,168.67
2022-08-07T14:11:53.245Z,167.00
2022-08-07T14:14:32.981Z,167.50
2022-08-07T14:17:32.500Z,167.97
2022-08-07T14:20:40.965Z,167.50
2022-08-07T14:22:46.125Z,168.23
2022-08-07T14:25:17.231Z,167.87
2022-08-07T14:28:10.874Z,168.13
2022-08-07T14:30:40.534Z,168.57
2022-08-07T14:33:10.175Z,168.20
2022-08-07T14:35:47.351Z,168.83
2022-08-07T14:38:30.207Z,167.90
2022-08-07T14:41:02.233Z,167.70
2022-08-07T14:43:58.429Z,168.17
2022-08-07T14:49:17.252Z,167.77
2022-08-07T14:52:10.463Z,167.67
2022-08-07T14:54:43.180Z,168.03
2022-08-07T15:00:06.614Z,170.07
2022-08-07T15:02:37.266Z,168.90
2022-08-07T15:05:20.175Z,168.50
2022-08-07T15:07:51.924Z,169.37
2022-08-07T15:10:26.434Z,168.23
2022-08-07T15:12:58.912Z,168.57
2022-08-07T15:15:38.502Z,169.00
2022-08-07T15:18:14.035Z,169.13
2022-08-07T15:25:16.312Z,167.67
2022-08-07T15:26:46.726Z,168.73
2022-08-07T15:32:11.639Z,168.27
2022-08-07T15:34:50.806Z,168.30
2022-08-07T15:37:29.204Z,168.97
2022-08-07T15:40:32.082Z,167.97
2022-08-07T15:43:33.175Z,168.20
2022-08-07T15:46:34.287Z,167.83
2022-08-07T15:49:14.477Z,168.73
2022-08-07T15:54:34.546Z,169.47
2022-08-07T15:57:39.467Z,169.93
2022-08-07T16:00:04.326Z,168.87
2022-08-07T16:02:40.555Z,168.33
2022-08-07T16:05:15.728Z,170.03
2022-08-07T16:08:32.778Z,168.37
2022-08-07T16:10:37.509Z,168.63
2022-08-07T16:13:58.099Z,168.60
2022-08-07T16:16:48.725Z,167.87
2022-08-07T16:19:43.042Z,168.83
2022-08-07T16:22:54.428Z,168.73
2022-08-07T16:25:54.808Z,168.03
2022-08-07T16:30:07.885Z,169.43
2022-08-07T16:31:50.367Z,168.87
2022-08-07T16:34:33.276Z,168.17
2022-08-07T16:38:05.621Z,168.83
2022-08-07T16:41:01.784Z,168.67
2022-08-07T16:44:03.861Z,168.80
2022-08-07T16:47:15.873Z,168.27
2022-08-07T16:50:38.827Z,168.43
2022-08-07T16:53:57.197Z,168.47
2022-08-07T16:56:37.443Z,168.83
2022-08-07T16:59:14.322Z,169.47
2022-08-07T17:01:59.614Z,167.90
2022-08-07T17:04:57.868Z,168.30
2022-08-07T17:07:55.264Z,168.80
2022-08-07T17:10:32.155Z,169.57
2022-08-07T17:13:17.624Z,169.27
2022-08-07T17:15:55.004Z,167.67
2022-08-07T17:18:32.566Z,169.97
2022-08-07T17:21:02.635Z,169.63
2022-08-07T17:23:57.719Z,169.50
2022-08-07T17:26:35.863Z,168.93
2022-08-07T17:30:18.112Z,168.57
2022-08-07T17:32:30.118Z,169.90
2022-08-07T17:35:50.557Z,170.23
2022-08-07T17:38:05.885Z,169.10
2022-08-07T17:40:50.727Z,169.03
2022-08-07T17:44:02.742Z,168.77
2022-08-07T17:46:22.693Z,169.43
2022-08-07T17:49:11.135Z,169.37
2022-08-07T17:52:00.399Z,168.73
2022-08-07T17:54:53.533Z,169.60
2022-08-07T17:57:56.039Z,170.77
2022-08-07T18:00:32.989Z,169.43
2022-08-07T18:03:18.292Z,168.63
2022-08-07T18:06:03.250Z,168.87
2022-08-07T18:09:01.419Z,169.77
2022-08-07T18:12:16.320Z,168.37
2022-08-07T18:14:32.211Z,169.17
2022-08-07T18:18:46.955Z,169.90
2022-08-07T18:21:10.626Z,170.57
2022-08-07T18:23:06.702Z,170.67
2022-08-07T18:26:04.001Z,169.87
2022-08-07T18:28:58.183Z,170.57
2022-08-07T18:31:41.028Z,170.40
2022-08-07T18:34:37.697Z,170.47
2022-08-07T18:38:55.758Z,170.00
2022-08-07T18:40:39.870Z,169.93
2022-08-07T18:43:42.676Z,170.10
2022-08-07T18:46:21.962Z,169.63
2022-08-07T18:50:29.889Z,170.43
2022-08-07T18:52:34.311Z,169.90
2022-08-07T18:55:42.346Z,170.40
2022-08-07T18:58:30.527Z,168.87
2022-08-07T19:02:17.216Z,170.10
2022-08-07T19:04:09.894Z,169.93
2022-08-07T19:06:54.091Z,169.77
2022-08-07T19:09:57.609Z,169.63
2022-08-07T19:12:26.276Z,170.37
2022-08-07T19:16:03.792Z,170.23
2022-08-07T19:18:13.284Z,170.20
2022-08-07T19:21:09.326Z,169.60
2022-08-07T19:23:58.150Z,169.33
2022-08-07T19:26:55.557Z,169.73
2022-08-07T19:31:05.118Z,169.53
2022-08-07T19:32:28.818Z,169.53
2022-08-07T19:35:02.895Z,168.60
2022-08-07T19:37:57.032Z,169.83
2022-08-07T19:40:30.981Z,169.63
2022-08-07T19:43:09.195Z,169.23
2022-08-07T19:46:07.592Z,169.60
2022-08-07T19:48:42.827Z,169.37
2022-08-07T19:51:20.112Z,169.60
2022-08-07T19:54:35.261Z,169.23
2022-08-07T19:58:00.655Z,168.63
2022-08-07T19:59:42.140Z,168.53
2022-08-07T20:02:19.127Z,168.97
2022-08-07T20:04:53.682Z,169.17
2022-08-07T20:07:46.399Z,168.67
2022-08-07T20:10:35.920Z,167.93
2022-08-07T20:13:22.499Z,168.90
2022-08-07T20:15:53.818Z,169.17
2022-08-07T20:18:32.697Z,168.50
2022-08-07T20:21:14.877Z,168.87
2022-08-07T20:23:54.760Z,168.03
2022-08-07T20:26:32.055Z,168.40
2022-08-07T20:29:47.281Z,169.83
2022-08-07T20:32:00.537Z,169.27
2022-08-07T20:34:49.543Z,168.77
2022-08-07T20:37:24.735Z,169.37
2022-08-07T20:40:02.500Z,168.93
2022-08-07T20:42:32.532Z,168.43
2022-08-07T20:45:01.938Z,168.70
2022-08-07T20:47:55.366Z,168.37
2022-08-07T20:50:26.392Z,167.37
2022-08-07T20:52:56.259Z,167.23
2022-08-07T20:55:25.581Z,166.67
2022-08-07T20:58:02.510Z,167.20
2022-08-07T21:00:40.474Z,168.03
2022-08-07T21:03:12.848Z,166.70
2022-08-07T21:05:55.715Z,166.87
2022-08-07T21:08:37.941Z,166.17
2022-08-07T21:11:11.954Z,166.40
2022-08-07T21:14:16.532Z,166.97
2022-08-07T21:16:55.909Z,167.10
2022-08-07T21:19:32.386Z,167.07
2022-08-07T21:22:19.416Z,166.67
2022-08-07T21:25:12.118Z,165.50
2022-08-07T21:27:53.748Z,167.07
2022-08-07T21:30:29.977Z,166.87
2022-08-07T21:33:07.920Z,167.87
2022-08-07T21:36:06.033Z,167.03
2022-08-07T21:38:37.099Z,167.20
2022-08-07T21:41:22.061Z,166.67
2022-08-07T21:44:04.002Z,166.60
2022-08-07T21:46:36.988Z,166.10
2022-08-07T21:49:14.904Z,166.23
2022-08-07T21:51:55.734Z,165.37
2022-08-07T21:54:36.239Z,166.00
2022-08-07T21:57:39.389Z,165.63
2022-08-07T22:00:22.780Z,165.33
2022-08-07T22:02:57.530Z,165.50
2022-08-07T22:05:45.227Z,164.53
2022-08-07T22:08:18.860Z,164.63
2022-08-07T22:10:51.601Z,164.10
2022-08-07T22:13:23.970Z,163.90
2022-08-07T22:16:38.870Z,164.17
2022-08-07T22:19:09.270Z,163.73
2022-08-07T22:22:01.729Z,164.67
2022-08-07T22:24:38.444Z,163.50
2022-08-07T22:27:17.796Z,163.10
2022-08-07T22:29:55.308Z,163.77
2022-08-07T22:32:33.988Z,164.37
2022-08-07T22:35:02.883Z,164.60
2022-08-07T22:38:03.176Z,164.73
2022-08-07T22:40:36.985Z,165.07
2022-08-07T22:43:09.846Z,164.77
2022-08-07T22:46:21.846Z,164.37
2022-08-07T22:49:07.815Z,164.97
2022-08-07T22:51:58.216Z,164.93
2022-08-07T22:55:00.170Z,164.47
2022-08-07T22:58:05.352Z,164.53
2022-08-07T23:00:42.532Z,164.97
2022-08-07T23:03:57.500Z,164.20
2022-08-07T23:06:51.531Z,164.57
2022-08-07T23:10:04.906Z,164.03
2022-08-07T23:12:45.675Z,163.17
2022-08-07T23:16:04.951Z,163.47
2022-08-07T23:18:31.910Z,163.80
2022-08-07T23:21:30.491Z,163.67
2022-08-07T23:24:29.128Z,164.37
2022-08-07T23:27:07.793Z,163.13
2022-08-07T23:30:38.576Z,161.80
2022-08-07T23:34:35.691Z,161.10
2022-08-07T23:37:17.706Z,162.53
2022-08-07T23:39:43.496Z,162.50
2022-08-07T23:42:21.814Z,163.90
2022-08-07T23:45:15.397Z,163.30
2022-08-07T23:48:21.136Z,163.53
2022-08-07T23:50:57.903Z,163.43
2022-08-07T23:53:50.875Z,163.83
2022-08-07T23:56:27.385Z,163.63
2022-08-07T23:59:10.595Z,163.93
